createdAt,value
2022-10-17T00:01:38.799Z,4.70
2022-10-17T00:03:41.224Z,5.20
2022-10-17T00:05:47.040Z,4.90
2022-10-17T00:07:49.035Z,4.67
2022-10-17T00:09:50.954Z,4.90
2022-10-17T00:11:52.877Z,6.27
2022-10-17T00:13:56.056Z,5.47
2022-10-17T00:15:58.403Z,5.40
2022-10-17T00:18:00.675Z,5.80
2022-10-17T00:20:02.767Z,5.53
2022-10-17T00:22:04.771Z,5.37
2022-10-17T00:24:06.965Z,5.80
2022-10-17T00:26:09.740Z,5.03
2022-10-17T00:28:12.957Z,4.60
2022-10-17T00:30:15.959Z,4.50
2022-10-17T00:32:18.996Z,5.10
2022-10-17T00:34:21.201Z,5.10
2022-10-17T00:36:25.544Z,5.70
2022-10-17T00:38:28.452Z,4.30
2022-10-17T00:40:30.428Z,4.53
2022-10-17T00:42:32.358Z,5.00
2022-10-17T00:44:34.226Z,4.83
2022-10-17T00:46:38.630Z,4.70
2022-10-17T00:48:44.406Z,5.40
2022-10-17T00:50:49.255Z,4.60
2022-10-17T00:52:51.953Z,4.40
2022-10-17T00:54:56.993Z,4.63
2022-10-17T00:56:59.439Z,5.03
2022-10-17T00:59:02.415Z,4.63
2022-10-17T01:01:04.567Z,4.80
2022-10-17T01:03:06.633Z,4.37
2022-10-17T01:05:09.725Z,4.90
2022-10-17T01:07:11.679Z,4.97
2022-10-17T01:09:13.614Z,4.73
2022-10-17T01:11:59.073Z,4.77
2022-10-17T01:14:14.594Z,4.83
2022-10-17T01:16:34.950Z,4.90
2022-10-17T01:18:51.723Z,4.63
2022-10-17T01:21:23.633Z,4.67
2022-10-17T01:23:53.321Z,5.10
2022-10-17T01:26:19.500Z,5.17
2022-10-17T01:29:01.459Z,4.90
2022-10-17T01:31:12.146Z,5.20
2022-10-17T01:33:31.205Z,4.50
2022-10-17T01:35:47.589Z,4.40
2022-10-17T01:37:59.771Z,4.67
2022-10-17T01:40:12.692Z,4.20
2022-10-17T01:42:27.206Z,4.87
2022-10-17T01:44:41.721Z,5.17
2022-10-17T01:46:48.920Z,4.93
2022-10-17T01:48:51.178Z,5.17
2022-10-17T01:50:57.323Z,4.80
2022-10-17T01:53:09.344Z,5.10
2022-10-17T01:55:18.411Z,4.70
2022-10-17T01:57:31.871Z,4.80
2022-10-17T01:59:40.936Z,4.73
2022-10-17T02:01:44.902Z,4.90
2022-10-17T02:03:49.022Z,4.33
2022-10-17T02:05:51.083Z,4.90
2022-10-17T02:07:53.083Z,4.27
2022-10-17T02:09:55.365Z,4.90
2022-10-17T02:12:12.115Z,4.20
2022-10-17T02:14:18.579Z,4.20
2022-10-17T02:16:32.327Z,4.67
2022-10-17T02:18:48.256Z,4.50
2022-10-17T02:21:07.558Z,4.30
2022-10-17T02:23:33.706Z,5.63
2022-10-17T02:25:48.838Z,4.27
2022-10-17T02:27:59.619Z,4.20
2022-10-17T02:30:36.765Z,4.93
2022-10-17T02:33:22.058Z,4.63
2022-10-17T02:35:27.436Z,4.03
2022-10-17T02:37:30.403Z,5.20
2022-10-17T02:39:35.160Z,5.97
2022-10-17T02:41:38.493Z,6.00
2022-10-17T02:43:40.712Z,6.37
2022-10-17T02:45:42.647Z,6.33
2022-10-17T02:47:53.379Z,6.40
2022-10-17T02:49:57.057Z,5.53
2022-10-17T02:52:08.603Z,5.40
2022-10-17T02:54:34.455Z,4.63
2022-10-17T02:56:41.872Z,4.57
2022-10-17T02:58:48.252Z,3.87
2022-10-17T03:00:50.936Z,5.37
2022-10-17T03:02:54.163Z,4.53
2022-10-17T03:04:56.816Z,4.83
2022-10-17T03:06:58.784Z,5.20
2022-10-17T03:09:00.763Z,5.30
2022-10-17T03:11:03.124Z,5.70
2022-10-17T03:13:05.544Z,6.20
2022-10-17T03:15:11.728Z,6.80
2022-10-17T03:17:13.694Z,6.40
2022-10-17T03:19:16.170Z,6.77
2022-10-17T03:21:18.899Z,7.80
2022-10-17T03:23:20.887Z,7.20
2022-10-17T03:25:23.096Z,8.17
2022-10-17T03:27:25.442Z,8.13
2022-10-17T03:29:27.368Z,8.00
2022-10-17T03:31:29.723Z,8.90
2022-10-17T03:33:32.300Z,7.67
2022-10-17T03:35:34.239Z,6.70
2022-10-17T03:37:36.979Z,8.00
2022-10-17T03:39:38.979Z,7.57
2022-10-17T03:41:41.092Z,7.23
2022-10-17T03:43:43.066Z,6.63
2022-10-17T03:45:45.171Z,6.67
2022-10-17T03:47:47.141Z,6.47
2022-10-17T03:49:50.198Z,5.80
2022-10-17T03:51:52.241Z,5.27
2022-10-17T03:53:54.600Z,5.00
2022-10-17T03:55:57.369Z,4.40
2022-10-17T03:57:59.882Z,5.43
2022-10-17T04:00:02.199Z,5.60
2022-10-17T04:02:05.391Z,5.13
2022-10-17T04:04:07.416Z,5.47
2022-10-17T04:06:12.408Z,6.07
2022-10-17T04:08:15.913Z,5.67
2022-10-17T04:10:46.738Z,5.33
2022-10-17T04:12:48.730Z,5.90
2022-10-17T04:14:50.685Z,5.73
2022-10-17T04:16:53.579Z,5.97
2022-10-17T04:18:58.292Z,5.17
2022-10-17T04:21:03.473Z,5.43
2022-10-17T04:23:06.395Z,4.90
2022-10-17T04:25:09.386Z,5.70
2022-10-17T04:27:15.028Z,5.00
2022-10-17T04:29:24.834Z,5.57
2022-10-17T04:31:30.495Z,5.33
2022-10-17T04:33:42.309Z,5.57
2022-10-17T04:35:44.392Z,6.03
2022-10-17T04:37:46.428Z,4.93
2022-10-17T04:39:53.075Z,6.40
2022-10-17T04:41:56.520Z,5.43
2022-10-17T04:43:58.592Z,5.63
2022-10-17T04:46:03.260Z,4.97
2022-10-17T04:48:05.550Z,5.20
2022-10-17T04:50:07.907Z,5.77
2022-10-17T04:52:11.000Z,5.23
2022-10-17T04:54:16.205Z,6.53
2022-10-17T04:56:22.736Z,5.60
2022-10-17T04:58:24.832Z,5.40
2022-10-17T05:00:27.109Z,4.70
2022-10-17T05:02:36.360Z,4.53
2022-10-17T05:04:53.985Z,5.20
2022-10-17T05:06:56.539Z,4.60
2022-10-17T05:09:07.741Z,4.40
2022-10-17T05:11:25.258Z,5.17
2022-10-17T05:13:27.330Z,5.10
2022-10-17T05:15:29.365Z,4.67
2022-10-17T05:17:31.588Z,5.03
2022-10-17T05:19:33.551Z,5.10
2022-10-17T05:21:37.428Z,4.80
2022-10-17T05:23:40.751Z,4.63
2022-10-17T05:25:43.278Z,4.90
2022-10-17T05:27:46.876Z,5.57
2022-10-17T05:29:50.140Z,4.53
2022-10-17T05:34:11.603Z,4.57
2022-10-17T05:36:16.631Z,4.10
2022-10-17T05:38:18.993Z,4.57
2022-10-17T05:40:22.256Z,4.17
2022-10-17T05:42:27.755Z,5.00
2022-10-17T05:44:31.319Z,5.30
2022-10-17T05:46:35.404Z,4.40
2022-10-17T05:48:37.329Z,4.80
2022-10-17T05:50:39.890Z,4.50
2022-10-17T05:52:53.671Z,5.43
2022-10-17T05:54:56.768Z,4.70
2022-10-17T05:56:58.821Z,5.00
2022-10-17T05:59:05.356Z,4.80
2022-10-17T06:01:22.467Z,4.83
2022-10-17T06:03:24.411Z,4.80
2022-10-17T06:05:26.477Z,4.87
2022-10-17T06:07:28.716Z,5.57
2022-10-17T06:09:30.750Z,5.80
2022-10-17T06:11:32.785Z,4.50
2022-10-17T06:13:34.805Z,4.70
2022-10-17T06:15:41.605Z,5.17
2022-10-17T06:17:44.155Z,4.77
2022-10-17T06:19:46.416Z,4.27
2022-10-17T06:21:50.111Z,4.77
2022-10-17T06:23:56.326Z,4.60
2022-10-17T06:26:06.996Z,4.73
2022-10-17T06:28:09.176Z,4.27
2022-10-17T06:30:11.164Z,4.50
2022-10-17T06:32:15.069Z,5.00
2022-10-17T06:34:20.501Z,4.20
2022-10-17T06:36:22.731Z,4.50
2022-10-17T06:38:26.080Z,4.20
2022-10-17T06:40:30.608Z,3.97
2022-10-17T06:42:33.753Z,4.03
2022-10-17T06:44:44.004Z,4.20
2022-10-17T06:46:58.846Z,5.90
2022-10-17T06:49:01.683Z,4.67
2022-10-17T06:51:18.861Z,3.93
2022-10-17T06:53:25.114Z,4.90
2022-10-17T06:55:27.101Z,4.43
2022-10-17T06:58:01.404Z,4.10
2022-10-17T07:00:17.832Z,4.07
2022-10-17T07:02:24.814Z,4.30
2022-10-17T07:04:28.354Z,4.30
2022-10-17T07:06:30.404Z,4.60
2022-10-17T07:08:35.923Z,4.30
2022-10-17T07:10:38.681Z,3.90
2022-10-17T07:12:44.711Z,4.03
2022-10-17T07:14:47.420Z,4.37
2022-10-17T07:16:49.951Z,4.07
2022-10-17T07:18:57.854Z,3.90
2022-10-17T07:21:00.091Z,3.80
2022-10-17T07:23:02.724Z,4.10
2022-10-17T07:25:05.412Z,4.17
2022-10-17T07:27:24.818Z,4.00
2022-10-17T07:29:28.156Z,4.10
2022-10-17T07:31:42.167Z,4.07
2022-10-17T07:35:52.830Z,3.20
2022-10-17T07:37:54.951Z,3.30
2022-10-17T07:39:57.090Z,2.97
2022-10-17T07:41:59.076Z,3.53
2022-10-17T07:44:01.168Z,2.97
2022-10-17T07:46:11.506Z,2.70
2022-10-17T07:48:13.816Z,2.90
2022-10-17T07:50:16.135Z,3.40
2022-10-17T07:52:18.362Z,2.87
2022-10-17T07:54:20.366Z,3.13
2022-10-17T07:56:24.741Z,3.07
2022-10-17T07:58:28.661Z,3.60
2022-10-17T08:00:30.550Z,2.50
2022-10-17T08:02:32.802Z,2.70
2022-10-17T08:04:36.426Z,3.03
2022-10-17T08:06:38.549Z,3.00
2022-10-17T08:08:41.442Z,3.10
2022-10-17T08:10:43.487Z,3.60
2022-10-17T08:12:45.605Z,3.07
2022-10-17T08:14:48.185Z,2.70
2022-10-17T08:16:50.153Z,2.97
2022-10-17T08:18:52.130Z,2.90
2022-10-17T08:20:56.796Z,2.80
2022-10-17T08:23:01.450Z,2.70
2022-10-17T08:25:03.780Z,2.60
2022-10-17T08:27:11.411Z,2.60
2022-10-17T08:29:15.244Z,2.67
2022-10-17T08:31:18.899Z,3.03
2022-10-17T08:33:20.838Z,2.53
2022-10-17T08:35:23.811Z,2.53
2022-10-17T08:37:25.798Z,2.57
2022-10-17T08:39:27.733Z,2.53
2022-10-17T08:41:54.862Z,3.40
2022-10-17T08:44:11.942Z,2.33
2022-10-17T08:48:19.235Z,2.30
2022-10-17T08:50:43.053Z,2.53
2022-10-17T08:52:52.854Z,2.50
2022-10-17T08:54:54.777Z,2.87
2022-10-17T08:56:57.520Z,2.17
2022-10-17T08:58:59.566Z,2.20
2022-10-17T09:01:13.195Z,2.77
2022-10-17T09:03:27.601Z,2.47
2022-10-17T09:05:51.852Z,2.30
2022-10-17T09:08:38.270Z,2.40
2022-10-17T09:10:48.913Z,2.57
2022-10-17T09:13:09.251Z,2.20
2022-10-17T09:15:42.226Z,2.70
2022-10-17T09:18:01.260Z,1.90
2022-10-17T09:20:14.942Z,2.10
2022-10-17T09:22:23.463Z,2.07
2022-10-17T09:24:45.252Z,2.90
2022-10-17T09:26:47.316Z,1.83
2022-10-17T09:28:55.063Z,2.13
2022-10-17T09:31:01.599Z,2.30
2022-10-17T09:33:42.240Z,2.40
2022-10-17T09:35:52.153Z,2.77
2022-10-17T09:37:54.616Z,1.90
2022-10-17T09:39:56.599Z,2.30
2022-10-17T09:42:01.166Z,2.30
2022-10-17T09:44:22.505Z,2.53
2022-10-17T09:46:34.422Z,2.40
2022-10-17T09:48:43.101Z,2.00
2022-10-17T09:50:48.245Z,2.33
2022-10-17T09:52:57.278Z,11.10
2022-10-17T09:55:16.229Z,3.70
2022-10-17T09:57:19.927Z,2.23
2022-10-17T09:59:43.207Z,2.53
2022-10-17T10:01:45.132Z,1.90
2022-10-17T10:03:47.621Z,2.20
2022-10-17T10:06:26.475Z,2.27
2022-10-17T10:08:34.982Z,2.20
2022-10-17T10:10:36.950Z,2.17
2022-10-17T10:12:39.500Z,2.30
2022-10-17T10:14:43.413Z,2.43
2022-10-17T10:16:49.922Z,2.23
2022-10-17T10:18:52.740Z,2.17
2022-10-17T10:21:17.749Z,2.30
2022-10-17T10:23:22.103Z,2.40
2022-10-17T10:25:24.047Z,2.20
2022-10-17T10:27:26.667Z,2.40
2022-10-17T10:29:32.911Z,2.37
2022-10-17T10:31:37.773Z,2.00
2022-10-17T10:33:43.524Z,2.40
2022-10-17T10:35:59.411Z,2.37
2022-10-17T10:38:04.273Z,2.80
2022-10-17T10:40:15.242Z,2.50
2022-10-17T10:42:25.947Z,2.60
2022-10-17T10:44:29.774Z,2.00
2022-10-17T10:46:31.767Z,2.37
2022-10-17T10:48:37.432Z,2.40
2022-10-17T10:50:47.315Z,2.60
2022-10-17T10:53:12.099Z,2.37
2022-10-17T10:55:36.972Z,2.77
2022-10-17T10:57:39.478Z,3.13
2022-10-17T10:59:56.582Z,2.40
2022-10-17T11:02:05.172Z,2.53
2022-10-17T11:04:29.454Z,2.80
2022-10-17T11:06:36.302Z,2.70
2022-10-17T11:08:47.806Z,3.30
2022-10-17T11:11:13.861Z,2.83
2022-10-17T11:13:17.938Z,2.13
2022-10-17T11:15:23.320Z,2.33
2022-10-17T11:17:41.067Z,2.80
2022-10-17T11:19:53.311Z,2.80
2022-10-17T11:22:23.993Z,2.90
2022-10-17T11:24:34.406Z,2.30
2022-10-17T11:26:46.752Z,2.50
2022-10-17T11:28:48.963Z,1.97
2022-10-17T11:31:03.298Z,2.70
2022-10-17T11:33:09.427Z,2.60
2022-10-17T11:35:21.523Z,2.33
2022-10-17T11:37:28.643Z,2.60
2022-10-17T11:39:48.487Z,2.47
2022-10-17T11:41:55.516Z,2.57
2022-10-17T11:44:02.721Z,2.33
2022-10-17T11:46:19.122Z,2.60
2022-10-17T11:48:29.376Z,2.40
2022-10-17T11:53:00.869Z,2.77
2022-10-17T11:55:11.323Z,2.77
2022-10-17T11:57:28.608Z,2.70
2022-10-17T11:59:47.104Z,2.57
2022-10-17T12:01:54.078Z,2.30
2022-10-17T12:04:26.823Z,3.00
2022-10-17T12:07:13.757Z,2.20
2022-10-17T12:09:27.670Z,2.73
2022-10-17T12:11:50.657Z,2.60
2022-10-17T12:13:54.772Z,2.67
2022-10-17T12:15:58.312Z,2.33
2022-10-17T12:18:02.927Z,2.50
2022-10-17T12:20:32.423Z,2.17
2022-10-17T12:22:34.455Z,2.63
2022-10-17T12:24:42.249Z,2.37
2022-10-17T12:26:44.198Z,2.40
2022-10-17T12:28:47.520Z,2.33
2022-10-17T12:31:12.966Z,2.40
2022-10-17T12:33:22.219Z,2.40
2022-10-17T12:35:25.663Z,2.57
2022-10-17T12:37:42.848Z,2.60
2022-10-17T12:39:44.799Z,2.50
2022-10-17T12:41:52.780Z,2.33
2022-10-17T12:43:54.971Z,2.93
2022-10-17T12:46:01.634Z,2.63
2022-10-17T12:48:03.869Z,2.67
2022-10-17T12:50:44.673Z,1.70
2022-10-17T12:52:46.714Z,2.60
2022-10-17T12:55:12.560Z,2.77
2022-10-17T12:57:35.831Z,2.50
2022-10-17T12:59:37.795Z,2.77
2022-10-17T13:01:40.379Z,2.63
2022-10-17T13:03:44.786Z,2.20
2022-10-17T13:05:56.918Z,2.80
2022-10-17T13:08:01.096Z,2.57
2022-10-17T13:10:05.331Z,2.40
2022-10-17T13:12:13.547Z,2.43
2022-10-17T13:14:17.261Z,2.50
2022-10-17T13:16:44.078Z,2.30
2022-10-17T13:18:53.077Z,2.33
2022-10-17T13:20:56.584Z,2.40
2022-10-17T13:22:59.273Z,2.50
2022-10-17T13:25:15.922Z,2.40
2022-10-17T13:27:32.900Z,2.37
2022-10-17T13:29:35.636Z,2.07
2022-10-17T13:31:43.192Z,2.10
2022-10-17T13:33:45.293Z,2.27
2022-10-17T13:35:59.941Z,3.07
2022-10-17T13:38:06.869Z,2.37
2022-10-17T13:40:40.745Z,2.43
2022-10-17T13:42:40.181Z,2.40
2022-10-17T13:44:43.493Z,2.50
2022-10-17T13:46:46.042Z,2.60
2022-10-17T13:48:49.457Z,2.17
2022-10-17T13:50:59.125Z,2.60
2022-10-17T13:53:20.527Z,2.40
2022-10-17T13:55:22.626Z,2.90
2022-10-17T13:57:28.212Z,2.30
2022-10-17T13:59:39.636Z,2.50
2022-10-17T14:01:42.214Z,3.83
2022-10-17T14:03:48.535Z,3.60
2022-10-17T14:08:22.770Z,5.67
2022-10-17T14:10:26.656Z,2.80
2022-10-17T14:12:28.693Z,2.60
2022-10-17T14:14:46.230Z,2.60
2022-10-17T14:16:53.005Z,2.70
2022-10-17T14:18:55.622Z,2.63
2022-10-17T14:21:33.972Z,2.47
2022-10-17T14:23:33.686Z,2.53
2022-10-17T14:25:37.975Z,2.20
2022-10-17T14:28:02.472Z,3.07
2022-10-17T14:30:06.911Z,2.57
2022-10-17T14:32:13.828Z,2.40
2022-10-17T14:34:31.456Z,2.40
2022-10-17T14:36:42.127Z,2.20
2022-10-17T14:38:48.931Z,2.73
2022-10-17T14:40:52.937Z,1.80
2022-10-17T14:42:57.031Z,2.33
2022-10-17T14:45:05.983Z,2.10
2022-10-17T14:47:41.841Z,3.70
2022-10-17T14:49:40.699Z,2.40
2022-10-17T14:52:13.716Z,1.93
2022-10-17T14:54:27.300Z,2.63
2022-10-17T14:56:43.224Z,3.10
2022-10-17T14:58:45.230Z,2.47
2022-10-17T15:00:47.184Z,2.10
2022-10-17T15:02:50.870Z,2.30
2022-10-17T15:04:53.270Z,2.53
2022-10-17T15:06:55.531Z,2.70
2022-10-17T15:08:58.074Z,2.50
2022-10-17T15:11:00.172Z,2.30
2022-10-17T15:13:27.107Z,2.20
2022-10-17T15:15:25.180Z,2.80
2022-10-17T15:17:31.508Z,2.90
2022-10-17T15:19:33.473Z,2.07
2022-10-17T15:21:42.046Z,2.40
2022-10-17T15:23:48.190Z,2.50
2022-10-17T15:25:50.430Z,2.27
2022-10-17T15:27:52.941Z,2.23
2022-10-17T15:29:54.884Z,2.27
2022-10-17T15:31:56.917Z,2.40
2022-10-17T15:33:58.893Z,2.57
2022-10-17T15:36:00.883Z,4.20
2022-10-17T15:38:02.796Z,3.57
2022-10-17T15:40:05.190Z,3.23
2022-10-17T15:42:11.883Z,3.27
2022-10-17T15:44:14.267Z,2.90
2022-10-17T15:46:22.677Z,3.27
2022-10-17T15:48:29.353Z,3.00
2022-10-17T15:50:31.570Z,3.57
2022-10-17T15:52:33.714Z,3.07
2022-10-17T15:54:35.668Z,2.63
2022-10-17T15:56:41.355Z,3.20
2022-10-17T15:58:43.462Z,6.73
2022-10-17T16:00:46.213Z,4.73
2022-10-17T16:02:49.351Z,4.67
2022-10-17T16:04:52.024Z,3.37
2022-10-17T16:06:53.968Z,3.13
2022-10-17T16:08:55.950Z,3.77
2022-10-17T16:10:57.920Z,2.90
2022-10-17T16:12:59.872Z,3.73
2022-10-17T16:15:01.849Z,3.30
2022-10-17T16:17:03.803Z,3.40
2022-10-17T16:19:06.019Z,6.63
2022-10-17T16:21:11.597Z,4.90
2022-10-17T16:23:14.602Z,5.33
2022-10-17T16:25:23.888Z,5.43
2022-10-17T16:27:26.592Z,7.20
2022-10-17T16:29:28.706Z,3.77
2022-10-17T16:31:33.355Z,4.63
2022-10-17T16:33:35.613Z,4.23
2022-10-17T16:35:37.957Z,3.90
2022-10-17T16:37:39.903Z,4.40
2022-10-17T16:39:41.910Z,3.53
2022-10-17T16:41:43.978Z,3.90
2022-10-17T16:43:46.948Z,4.77
2022-10-17T16:45:48.964Z,4.30
2022-10-17T16:47:51.050Z,4.37
2022-10-17T16:49:53.052Z,4.10
2022-10-17T16:51:55.032Z,4.37
2022-10-17T16:54:00.135Z,3.77
2022-10-17T16:56:03.454Z,4.13
2022-10-17T16:58:05.366Z,3.93
2022-10-17T17:00:08.211Z,3.70
2022-10-17T17:02:11.946Z,3.33
2022-10-17T17:04:14.281Z,3.00
2022-10-17T17:06:20.659Z,2.77
2022-10-17T17:08:22.622Z,3.17
2022-10-17T17:10:24.602Z,3.10
2022-10-17T17:12:26.550Z,3.27
2022-10-17T17:14:28.486Z,3.67
2022-10-17T17:16:31.917Z,3.40
2022-10-17T17:18:34.266Z,3.40
2022-10-17T17:20:36.201Z,3.90
2022-10-17T17:22:38.549Z,2.80
2022-10-17T17:24:40.752Z,4.10
2022-10-17T17:26:43.544Z,4.27
2022-10-17T17:28:46.363Z,3.67
2022-10-17T17:30:48.322Z,3.70
2022-10-17T17:32:50.244Z,3.97
2022-10-17T17:34:52.271Z,3.60
2022-10-17T17:36:54.228Z,3.90
2022-10-17T17:38:57.204Z,3.83
2022-10-17T17:40:59.277Z,4.50
2022-10-17T17:45:09.244Z,4.00
2022-10-17T17:47:11.214Z,5.30
2022-10-17T17:49:13.687Z,10.40
2022-10-17T17:51:17.738Z,9.80
2022-10-17T17:53:19.697Z,7.67
2022-10-17T17:55:21.588Z,8.20
2022-10-17T17:57:23.692Z,6.20
2022-10-17T17:59:25.836Z,6.00
2022-10-17T18:01:30.900Z,6.30
2022-10-17T18:03:32.955Z,6.30
2022-10-17T18:05:34.984Z,6.80
2022-10-17T18:07:37.723Z,6.40
2022-10-17T18:09:39.660Z,5.70
2022-10-17T18:11:42.000Z,5.07
2022-10-17T18:13:43.978Z,5.00
2022-10-17T18:15:46.438Z,6.23
2022-10-17T18:17:49.174Z,5.73
2022-10-17T18:19:51.154Z,5.17
2022-10-17T18:21:53.113Z,4.80
2022-10-17T18:23:55.085Z,5.43
2022-10-17T18:26:00.755Z,5.17
2022-10-17T18:28:03.240Z,5.73
2022-10-17T18:30:05.948Z,4.73
2022-10-17T18:32:08.100Z,4.90
2022-10-17T18:34:10.064Z,4.23
2022-10-17T18:36:13.755Z,4.67
2022-10-17T18:38:15.912Z,4.23
2022-10-17T18:40:18.120Z,3.90
2022-10-17T18:42:20.516Z,4.17
2022-10-17T18:44:22.557Z,4.43
2022-10-17T18:46:30.172Z,4.20
2022-10-17T18:48:32.511Z,4.43
2022-10-17T18:50:34.479Z,5.40
2022-10-17T18:52:36.513Z,4.60
2022-10-17T18:54:38.870Z,5.20
2022-10-17T18:56:40.990Z,5.07
2022-10-17T18:58:43.316Z,4.03
2022-10-17T19:00:46.082Z,4.63
2022-10-17T19:02:48.065Z,4.80
2022-10-17T19:06:56.931Z,5.07
2022-10-17T19:09:04.172Z,3.53
2022-10-17T19:11:13.474Z,4.47
2022-10-17T19:13:20.710Z,3.90
2022-10-17T19:15:25.899Z,4.63
2022-10-17T19:17:28.343Z,4.30
2022-10-17T19:19:30.733Z,4.57
2022-10-17T19:21:33.303Z,3.50
2022-10-17T19:23:36.380Z,3.70
2022-10-17T19:25:38.318Z,3.97
2022-10-17T19:27:40.298Z,4.03
2022-10-17T19:29:44.044Z,4.23
2022-10-17T19:31:47.463Z,3.90
2022-10-17T19:33:52.603Z,3.50
2022-10-17T19:36:08.766Z,3.37
2022-10-17T19:38:10.836Z,3.23
2022-10-17T19:40:14.317Z,3.30
2022-10-17T19:42:16.298Z,3.23
2022-10-17T19:44:18.522Z,3.50
2022-10-17T19:46:22.001Z,4.10
2022-10-17T19:48:24.406Z,3.00
2022-10-17T19:50:26.351Z,3.37
2022-10-17T19:52:28.637Z,3.40
2022-10-17T19:54:30.817Z,3.10
2022-10-17T19:56:36.762Z,3.60
2022-10-17T19:58:46.232Z,3.40
2022-10-17T20:00:50.050Z,3.43
2022-10-17T20:02:52.007Z,3.00
2022-10-17T20:04:59.894Z,4.10
2022-10-17T20:07:09.809Z,3.47
2022-10-17T20:09:15.819Z,3.83
2022-10-17T20:11:24.173Z,4.20
2022-10-17T20:13:26.080Z,4.60
2022-10-17T20:15:28.039Z,4.13
2022-10-17T20:17:30.036Z,3.50
2022-10-17T20:19:32.195Z,4.40
2022-10-17T20:21:36.584Z,4.03
2022-10-17T20:23:39.798Z,3.80
2022-10-17T20:25:42.151Z,3.47
2022-10-17T20:27:44.125Z,3.40
2022-10-17T20:29:46.055Z,3.10
2022-10-17T20:31:48.420Z,3.20
2022-10-17T20:33:58.215Z,3.60
2022-10-17T20:36:00.191Z,4.13
2022-10-17T20:38:02.229Z,3.20
2022-10-17T20:40:33.105Z,3.37
2022-10-17T20:42:28.531Z,4.03
2022-10-17T20:44:30.647Z,3.47
2022-10-17T20:46:37.368Z,3.30
2022-10-17T20:48:39.807Z,3.30
2022-10-17T20:50:43.151Z,3.87
2022-10-17T20:52:45.154Z,3.77
2022-10-17T20:54:47.054Z,3.30
2022-10-17T20:56:49.211Z,3.70
2022-10-17T20:58:53.541Z,2.90
2022-10-17T21:00:55.438Z,4.17
2022-10-17T21:02:59.111Z,3.47
2022-10-17T21:05:01.091Z,3.53
2022-10-17T21:07:03.450Z,3.60
2022-10-17T21:09:06.016Z,3.53
2022-10-17T21:11:21.888Z,3.90
2022-10-17T21:13:23.895Z,3.90
2022-10-17T21:15:26.051Z,4.20
2022-10-17T21:17:28.317Z,4.90
2022-10-17T21:19:30.346Z,4.50
2022-10-17T21:21:36.685Z,5.40
2022-10-17T21:23:39.703Z,4.80
2022-10-17T21:25:41.615Z,4.77
2022-10-17T21:27:43.559Z,4.70
2022-10-17T21:29:45.674Z,4.23
2022-10-17T21:31:47.711Z,4.50
2022-10-17T21:33:58.733Z,4.83
2022-10-17T21:36:00.627Z,4.97
2022-10-17T21:38:03.185Z,6.13
2022-10-17T21:40:05.635Z,4.53
2022-10-17T21:42:07.624Z,4.73
2022-10-17T21:44:15.869Z,3.73
2022-10-17T21:46:18.784Z,3.77
2022-10-17T21:48:20.736Z,3.60
2022-10-17T21:50:22.700Z,4.03
2022-10-17T21:52:24.669Z,4.10
2022-10-17T21:54:26.627Z,4.00
2022-10-17T21:56:30.654Z,4.30
2022-10-17T21:58:33.447Z,4.83
2022-10-17T22:00:35.375Z,3.73
2022-10-17T22:02:37.315Z,4.17
2022-10-17T22:04:39.263Z,4.30
2022-10-17T22:06:42.593Z,3.73
2022-10-17T22:08:44.786Z,4.57
2022-10-17T22:10:46.697Z,4.20
2022-10-17T22:12:48.709Z,4.20
2022-10-17T22:14:50.647Z,3.80
2022-10-17T22:16:52.841Z,4.07
2022-10-17T22:19:03.176Z,4.30
2022-10-17T22:21:10.335Z,4.23
2022-10-17T22:23:12.307Z,4.07
2022-10-17T22:25:14.393Z,4.43
2022-10-17T22:27:16.335Z,4.33
2022-10-17T22:29:18.448Z,4.83
2022-10-17T22:31:20.444Z,5.53
2022-10-17T22:33:22.438Z,4.70
2022-10-17T22:35:24.450Z,5.27
2022-10-17T22:37:26.368Z,5.23
2022-10-17T22:39:28.327Z,4.43
2022-10-17T22:41:30.614Z,5.10
2022-10-17T22:43:32.966Z,4.60
2022-10-17T22:45:35.131Z,5.27
2022-10-17T22:47:37.087Z,5.07
2022-10-17T22:49:39.055Z,4.93
2022-10-17T22:51:41.018Z,4.73
2022-10-17T22:53:43.039Z,4.60
2022-10-17T22:55:56.770Z,5.03
2022-10-17T22:57:58.799Z,4.70
2022-10-17T23:00:00.803Z,4.13
2022-10-17T23:02:02.783Z,5.60
2022-10-17T23:04:04.955Z,4.23
2022-10-17T23:06:07.082Z,4.50
2022-10-17T23:08:09.157Z,4.67
2022-10-17T23:10:11.127Z,4.60
2022-10-17T23:12:13.090Z,4.90
2022-10-17T23:14:15.066Z,4.20
2022-10-17T23:16:20.103Z,4.60
2022-10-17T23:18:22.936Z,4.77
2022-10-17T23:20:24.955Z,4.67
2022-10-17T23:22:26.914Z,4.80
2022-10-17T23:24:28.972Z,5.07
2022-10-17T23:26:30.867Z,4.70
2022-10-17T23:28:35.571Z,4.60
2022-10-17T23:30:39.036Z,4.80
2022-10-17T23:32:41.459Z,4.30
2022-10-17T23:34:43.480Z,4.50
2022-10-17T23:36:45.512Z,4.33
2022-10-17T23:38:48.627Z,4.10
2022-10-17T23:40:50.576Z,4.60
2022-10-17T23:42:52.541Z,4.30
2022-10-17T23:44:54.590Z,4.80
2022-10-17T23:46:56.597Z,3.90
2022-10-17T23:48:58.501Z,5.20
2022-10-17T23:51:00.554Z,4.50
2022-10-17T23:53:02.490Z,4.90
2022-10-17T23:55:04.981Z,4.07
2022-10-17T23:57:07.044Z,4.60
2022-10-17T23:59:09.298Z,4.77
